sensor_id;sensor_type;location;lat;lon;timestamp;temperature;humidity
13115;DHT22;6623;52.120;8.660;2023-08-31T00:01:39;24.70;49.80
13115;DHT22;6623;52.120;8.660;2023-08-31T00:04:04;24.70;49.80
13115;DHT22;6623;52.120;8.660;2023-08-31T00:06:32;24.70;49.80
13115;DHT22;6623;52.120;8.660;2023-08-31T00:08:58;24.70;49.80
13115;DHT22;6623;52.120;8.660;2023-08-31T00:11:23;24.70;49.90
13115;DHT22;6623;52.120;8.660;2023-08-31T00:13:49;24.70;49.90
13115;DHT22;6623;52.120;8.660;2023-08-31T00:16:15;24.70;49.80
13115;DHT22;6623;52.120;8.660;2023-08-31T00:18:40;24.70;49.90
13115;DHT22;6623;52.120;8.660;2023-08-31T00:21:06;24.70;49.80
13115;DHT22;6623;52.120;8.660;2023-08-31T00:23:31;24.70;49.80
13115;DHT22;6623;52.120;8.660;2023-08-31T00:25:57;24.70;49.90
13115;DHT22;6623;52.120;8.660;2023-08-31T00:28:23;24.70;50.00
13115;DHT22;6623;52.120;8.660;2023-08-31T00:30:48;24.70;49.80
13115;DHT22;6623;52.120;8.660;2023-08-31T00:33:15;24.70;49.80
13115;DHT22;6623;52.120;8.660;2023-08-31T00:35:41;24.70;49.80
13115;DHT22;6623;52.120;8.660;2023-08-31T00:38:12;24.70;49.80
13115;DHT22;6623;52.120;8.660;2023-08-31T00:40:42;24.70;49.80
13115;DHT22;6623;52.120;8.660;2023-08-31T00:43:11;24.70;49.80
13115;DHT22;6623;52.120;8.660;2023-08-31T00:45:37;24.70;49.80
13115;DHT22;6623;52.120;8.660;2023-08-31T00:48:04;24.70;50.40
13115;DHT22;6623;52.120;8.660;2023-08-31T00:50:30;24.70;49.80
13115;DHT22;6623;52.120;8.660;2023-08-31T00:52:56;24.70;49.80
13115;DHT22;6623;52.120;8.660;2023-08-31T00:55:22;24.70;49.80
13115;DHT22;6623;52.120;8.660;2023-08-31T00:57:48;24.70;49.70
13115;DHT22;6623;52.120;8.660;2023-08-31T01:00:14;24.70;49.70
13115;DHT22;6623;52.120;8.660;2023-08-31T01:03:03;24.70;49.70
13115;DHT22;6623;52.120;8.660;2023-08-31T01:06:07;24.70;49.70
13115;DHT22;6623;52.120;8.660;2023-08-31T01:08:47;24.70;49.80
13115;DHT22;6623;52.120;8.660;2023-08-31T01:11:29;24.70;49.70
13115;DHT22;6623;52.120;8.660;2023-08-31T01:14:11;24.70;49.70
13115;DHT22;6623;52.120;8.660;2023-08-31T01:16:38;24.70;49.70
13115;DHT22;6623;52.120;8.660;2023-08-31T01:19:17;24.70;49.70
13115;DHT22;6623;52.120;8.660;2023-08-31T01:21:51;24.70;49.70
13115;DHT22;6623;52.120;8.660;2023-08-31T01:24:20;24.70;49.70
13115;DHT22;6623;52.120;8.660;2023-08-31T01:26:47;24.70;49.70
13115;DHT22;6623;52.120;8.660;2023-08-31T01:29:12;24.70;49.70
13115;DHT22;6623;52.120;8.660;2023-08-31T01:31:42;24.70;49.70
13115;DHT22;6623;52.120;8.660;2023-08-31T01:34:08;24.70;49.70
13115;DHT22;6623;52.120;8.660;2023-08-31T01:36:37;24.70;49.70
13115;DHT22;6623;52.120;8.660;2023-08-31T01:39:15;24.70;49.70
13115;DHT22;6623;52.120;8.660;2023-08-31T01:41:46;24.70;49.70
13115;DHT22;6623;52.120;8.660;2023-08-31T01:44:15;24.70;49.70
13115;DHT22;6623;52.120;8.660;2023-08-31T01:46:45;24.70;49.60
13115;DHT22;6623;52.120;8.660;2023-08-31T01:49:11;24.70;49.70
13115;DHT22;6623;52.120;8.660;2023-08-31T01:51:36;24.70;49.70
13115;DHT22;6623;52.120;8.660;2023-08-31T01:54:02;24.70;49.70
13115;DHT22;6623;52.120;8.660;2023-08-31T01:56:28;24.70;49.60
13115;DHT22;6623;52.120;8.660;2023-08-31T01:58:54;24.70;49.60
13115;DHT22;6623;52.120;8.660;2023-08-31T02:01:19;24.70;49.60
13115;DHT22;6623;52.120;8.660;2023-08-31T02:03:45;24.70;49.60
13115;DHT22;6623;52.120;8.660;2023-08-31T02:06:11;24.70;49.60
13115;DHT22;6623;52.120;8.660;2023-08-31T02:08:36;24.70;49.60
13115;DHT22;6623;52.120;8.660;2023-08-31T02:11:02;24.70;49.50
13115;DHT22;6623;52.120;8.660;2023-08-31T02:13:29;24.70;49.60
13115;DHT22;6623;52.120;8.660;2023-08-31T02:15:55;24.70;49.60
13115;DHT22;6623;52.120;8.660;2023-08-31T02:18:20;24.70;49.60
13115;DHT22;6623;52.120;8.660;2023-08-31T02:20:46;24.70;49.50
13115;DHT22;6623;52.120;8.660;2023-08-31T02:23:11;24.70;49.50
13115;DHT22;6623;52.120;8.660;2023-08-31T02:25:37;24.70;49.50
13115;DHT22;6623;52.120;8.660;2023-08-31T02:28:03;24.70;49.50
13115;DHT22;6623;52.120;8.660;2023-08-31T02:30:29;24.70;49.50
13115;DHT22;6623;52.120;8.660;2023-08-31T02:32:54;24.70;49.50
13115;DHT22;6623;52.120;8.660;2023-08-31T02:35:20;24.70;49.50
13115;DHT22;6623;52.120;8.660;2023-08-31T02:37:45;24.70;49.60
13115;DHT22;6623;52.120;8.660;2023-08-31T02:40:11;24.70;49.50
13115;DHT22;6623;52.120;8.660;2023-08-31T02:42:37;24.70;49.50
13115;DHT22;6623;52.120;8.660;2023-08-31T02:45:03;24.70;49.50
13115;DHT22;6623;52.120;8.660;2023-08-31T02:47:29;24.70;49.50
13115;DHT22;6623;52.120;8.660;2023-08-31T02:49:54;24.70;49.50
13115;DHT22;6623;52.120;8.660;2023-08-31T02:52:20;24.60;49.50
13115;DHT22;6623;52.120;8.660;2023-08-31T02:54:45;24.70;49.50
13115;DHT22;6623;52.120;8.660;2023-08-31T02:57:11;24.70;49.50
13115;DHT22;6623;52.120;8.660;2023-08-31T02:59:37;24.60;49.40
13115;DHT22;6623;52.120;8.660;2023-08-31T03:02:03;24.70;49.50
13115;DHT22;6623;52.120;8.660;2023-08-31T03:04:29;24.60;49.50
13115;DHT22;6623;52.120;8.660;2023-08-31T03:06:54;24.70;49.50
13115;DHT22;6623;52.120;8.660;2023-08-31T03:09:20;24.60;49.40
13115;DHT22;6623;52.120;8.660;2023-08-31T03:11:46;24.60;49.40
13115;DHT22;6623;52.120;8.660;2023-08-31T03:14:11;24.60;49.40
13115;DHT22;6623;52.120;8.660;2023-08-31T03:16:37;24.60;49.40
13115;DHT22;6623;52.120;8.660;2023-08-31T03:19:03;24.60;49.40
13115;DHT22;6623;52.120;8.660;2023-08-31T03:21:28;24.60;49.40
13115;DHT22;6623;52.120;8.660;2023-08-31T03:23:54;24.60;49.40
13115;DHT22;6623;52.120;8.660;2023-08-31T03:26:20;24.60;49.40
13115;DHT22;6623;52.120;8.660;2023-08-31T03:28:45;24.60;49.40
13115;DHT22;6623;52.120;8.660;2023-08-31T03:31:11;24.60;49.40
13115;DHT22;6623;52.120;8.660;2023-08-31T03:33:36;24.60;49.40
13115;DHT22;6623;52.120;8.660;2023-08-31T03:36:03;24.60;49.40
13115;DHT22;6623;52.120;8.660;2023-08-31T03:38:33;24.60;49.40
13115;DHT22;6623;52.120;8.660;2023-08-31T03:41:03;24.60;49.40
13115;DHT22;6623;52.120;8.660;2023-08-31T03:43:29;24.60;49.40
13115;DHT22;6623;52.120;8.660;2023-08-31T03:45:55;24.70;49.40
13115;DHT22;6623;52.120;8.660;2023-08-31T03:48:21;24.70;49.40
13115;DHT22;6623;52.120;8.660;2023-08-31T03:50:53;24.60;49.40
13115;DHT22;6623;52.120;8.660;2023-08-31T03:53:19;24.60;49.40
13115;DHT22;6623;52.120;8.660;2023-08-31T03:55:44;24.60;49.40
13115;DHT22;6623;52.120;8.660;2023-08-31T03:58:10;24.60;49.40
13115;DHT22;6623;52.120;8.660;2023-08-31T04:00:37;24.60;49.40
13115;DHT22;6623;52.120;8.660;2023-08-31T04:03:03;24.60;49.40
13115;DHT22;6623;52.120;8.660;2023-08-31T04:05:32;24.60;49.40
13115;DHT22;6623;52.120;8.660;2023-08-31T04:07:58;24.60;49.40
13115;DHT22;6623;52.120;8.660;2023-08-31T04:10:23;24.60;49.40
13115;DHT22;6623;52.120;8.660;2023-08-31T04:12:50;24.60;49.40
13115;DHT22;6623;52.120;8.660;2023-08-31T04:15:16;24.60;49.40
13115;DHT22;6623;52.120;8.660;2023-08-31T04:17:42;24.60;49.40
13115;DHT22;6623;52.120;8.660;2023-08-31T04:20:08;24.60;49.40
13115;DHT22;6623;52.120;8.660;2023-08-31T04:22:34;24.60;49.30
13115;DHT22;6623;52.120;8.660;2023-08-31T04:24:59;24.60;49.40
13115;DHT22;6623;52.120;8.660;2023-08-31T04:27:25;24.60;49.30
13115;DHT22;6623;52.120;8.660;2023-08-31T04:29:50;24.60;49.30
13115;DHT22;6623;52.120;8.660;2023-08-31T04:32:16;24.60;49.30
13115;DHT22;6623;52.120;8.660;2023-08-31T04:34:41;24.60;49.30
13115;DHT22;6623;52.120;8.660;2023-08-31T04:37:07;24.60;49.30
13115;DHT22;6623;52.120;8.660;2023-08-31T04:39:32;24.60;49.20
13115;DHT22;6623;52.120;8.660;2023-08-31T04:41:58;24.60;49.30
13115;DHT22;6623;52.120;8.660;2023-08-31T04:44:23;24.60;49.30
13115;DHT22;6623;52.120;8.660;2023-08-31T04:46:49;24.60;49.30
13115;DHT22;6623;52.120;8.660;2023-08-31T04:49:14;24.60;49.30
13115;DHT22;6623;52.120;8.660;2023-08-31T04:51:40;24.60;49.30
13115;DHT22;6623;52.120;8.660;2023-08-31T04:54:07;24.60;49.20
13115;DHT22;6623;52.120;8.660;2023-08-31T04:56:33;24.60;49.20
13115;DHT22;6623;52.120;8.660;2023-08-31T04:58:59;24.60;49.20
13115;DHT22;6623;52.120;8.660;2023-08-31T05:01:25;24.60;49.20
13115;DHT22;6623;52.120;8.660;2023-08-31T05:03:51;24.60;49.20
13115;DHT22;6623;52.120;8.660;2023-08-31T05:06:17;24.60;49.20
13115;DHT22;6623;52.120;8.660;2023-08-31T05:08:42;24.60;49.20
13115;DHT22;6623;52.120;8.660;2023-08-31T05:11:08;24.60;49.20
13115;DHT22;6623;52.120;8.660;2023-08-31T05:13:34;24.60;49.20
13115;DHT22;6623;52.120;8.660;2023-08-31T05:16:00;24.60;49.20
13115;DHT22;6623;52.120;8.660;2023-08-31T05:18:25;24.60;49.20
13115;DHT22;6623;52.120;8.660;2023-08-31T05:20:51;24.60;49.20
13115;DHT22;6623;52.120;8.660;2023-08-31T05:23:16;24.60;49.20
13115;DHT22;6623;52.120;8.660;2023-08-31T05:25:43;24.60;49.20
13115;DHT22;6623;52.120;8.660;2023-08-31T05:28:08;24.60;49.20
13115;DHT22;6623;52.120;8.660;2023-08-31T05:30:34;24.60;49.20
13115;DHT22;6623;52.120;8.660;2023-08-31T05:33:00;24.60;49.20
13115;DHT22;6623;52.120;8.660;2023-08-31T05:35:26;24.60;49.10
13115;DHT22;6623;52.120;8.660;2023-08-31T05:37:52;24.60;49.10
13115;DHT22;6623;52.120;8.660;2023-08-31T05:40:18;24.60;49.20
13115;DHT22;6623;52.120;8.660;2023-08-31T05:42:44;24.60;49.20
13115;DHT22;6623;52.120;8.660;2023-08-31T05:45:10;24.60;49.10
13115;DHT22;6623;52.120;8.660;2023-08-31T05:47:35;24.60;49.20
13115;DHT22;6623;52.120;8.660;2023-08-31T05:50:01;24.60;49.10
13115;DHT22;6623;52.120;8.660;2023-08-31T05:52:27;24.60;49.10
13115;DHT22;6623;52.120;8.660;2023-08-31T05:54:52;24.60;49.10
13115;DHT22;6623;52.120;8.660;2023-08-31T05:57:19;24.60;49.10
13115;DHT22;6623;52.120;8.660;2023-08-31T05:59:45;24.60;49.10
13115;DHT22;6623;52.120;8.660;2023-08-31T06:02:10;24.50;49.00
13115;DHT22;6623;52.120;8.660;2023-08-31T06:04:36;24.60;49.10
13115;DHT22;6623;52.120;8.660;2023-08-31T06:07:02;24.50;49.10
13115;DHT22;6623;52.120;8.660;2023-08-31T06:09:28;24.60;49.10
13115;DHT22;6623;52.120;8.660;2023-08-31T06:11:53;24.60;49.10
13115;DHT22;6623;52.120;8.660;2023-08-31T06:14:19;24.50;49.10
13115;DHT22;6623;52.120;8.660;2023-08-31T06:16:45;24.50;49.10
13115;DHT22;6623;52.120;8.660;2023-08-31T06:19:11;24.50;49.10
13115;DHT22;6623;52.120;8.660;2023-08-31T06:21:36;24.50;49.10
13115;DHT22;6623;52.120;8.660;2023-08-31T06:24:02;24.50;49.00
13115;DHT22;6623;52.120;8.660;2023-08-31T06:26:29;24.50;49.10
13115;DHT22;6623;52.120;8.660;2023-08-31T06:28:54;24.50;49.00
13115;DHT22;6623;52.120;8.660;2023-08-31T06:31:20;24.50;49.10
13115;DHT22;6623;52.120;8.660;2023-08-31T06:33:45;24.50;49.00
13115;DHT22;6623;52.120;8.660;2023-08-31T06:36:11;24.50;49.10
13115;DHT22;6623;52.120;8.660;2023-08-31T06:38:36;24.50;49.00
13115;DHT22;6623;52.120;8.660;2023-08-31T06:41:02;24.50;49.00
13115;DHT22;6623;52.120;8.660;2023-08-31T06:43:28;24.50;49.00
13115;DHT22;6623;52.120;8.660;2023-08-31T06:45:53;24.50;49.00
13115;DHT22;6623;52.120;8.660;2023-08-31T06:48:19;24.60;49.00
13115;DHT22;6623;52.120;8.660;2023-08-31T06:50:46;24.50;49.00
13115;DHT22;6623;52.120;8.660;2023-08-31T06:53:12;24.50;49.00
13115;DHT22;6623;52.120;8.660;2023-08-31T06:55:37;24.50;49.00
13115;DHT22;6623;52.120;8.660;2023-08-31T06:58:04;24.50;49.00
13115;DHT22;6623;52.120;8.660;2023-08-31T07:00:30;24.50;49.00
13115;DHT22;6623;52.120;8.660;2023-08-31T07:02:57;24.50;49.00
13115;DHT22;6623;52.120;8.660;2023-08-31T07:05:25;24.50;49.00
13115;DHT22;6623;52.120;8.660;2023-08-31T07:07:52;24.50;49.00
13115;DHT22;6623;52.120;8.660;2023-08-31T07:10:19;24.50;49.00
13115;DHT22;6623;52.120;8.660;2023-08-31T07:12:44;24.50;49.00
13115;DHT22;6623;52.120;8.660;2023-08-31T07:15:10;24.50;49.00
13115;DHT22;6623;52.120;8.660;2023-08-31T07:17:35;24.50;48.90
13115;DHT22;6623;52.120;8.660;2023-08-31T07:20:01;24.50;49.00
13115;DHT22;6623;52.120;8.660;2023-08-31T07:22:26;24.50;49.00
13115;DHT22;6623;52.120;8.660;2023-08-31T07:24:52;24.50;49.00
13115;DHT22;6623;52.120;8.660;2023-08-31T07:27:17;24.50;49.00
13115;DHT22;6623;52.120;8.660;2023-08-31T07:29:43;24.50;49.00
13115;DHT22;6623;52.120;8.660;2023-08-31T07:32:08;24.50;49.00
13115;DHT22;6623;52.120;8.660;2023-08-31T07:34:34;24.50;49.00
13115;DHT22;6623;52.120;8.660;2023-08-31T07:36:59;24.50;49.00
13115;DHT22;6623;52.120;8.660;2023-08-31T07:39:25;24.50;49.60
13115;DHT22;6623;52.120;8.660;2023-08-31T07:41:53;24.40;49.00
13115;DHT22;6623;52.120;8.660;2023-08-31T07:44:19;24.40;48.90
13115;DHT22;6623;52.120;8.660;2023-08-31T07:46:45;24.40;48.90
13115;DHT22;6623;52.120;8.660;2023-08-31T07:49:10;24.40;48.90
13115;DHT22;6623;52.120;8.660;2023-08-31T07:51:36;24.40;49.00
13115;DHT22;6623;52.120;8.660;2023-08-31T07:54:02;24.40;49.00
13115;DHT22;6623;52.120;8.660;2023-08-31T07:56:28;24.40;49.00
13115;DHT22;6623;52.120;8.660;2023-08-31T07:58:54;24.40;49.00
13115;DHT22;6623;52.120;8.660;2023-08-31T08:01:19;24.40;49.00
13115;DHT22;6623;52.120;8.660;2023-08-31T08:03:45;24.40;49.00
13115;DHT22;6623;52.120;8.660;2023-08-31T08:06:11;24.40;49.00
13115;DHT22;6623;52.120;8.660;2023-08-31T08:08:36;24.40;49.00
13115;DHT22;6623;52.120;8.660;2023-08-31T08:11:04;24.40;49.00
13115;DHT22;6623;52.120;8.660;2023-08-31T08:13:30;24.40;49.00
13115;DHT22;6623;52.120;8.660;2023-08-31T08:15:55;24.40;49.10
13115;DHT22;6623;52.120;8.660;2023-08-31T08:18:21;24.40;49.10
13115;DHT22;6623;52.120;8.660;2023-08-31T08:20:53;24.40;49.10
13115;DHT22;6623;52.120;8.660;2023-08-31T08:23:19;24.30;49.10
13115;DHT22;6623;52.120;8.660;2023-08-31T08:25:44;24.40;49.10
13115;DHT22;6623;52.120;8.660;2023-08-31T08:28:10;24.40;49.10
13115;DHT22;6623;52.120;8.660;2023-08-31T08:30:36;24.40;49.20
13115;DHT22;6623;52.120;8.660;2023-08-31T08:33:01;24.40;49.10
13115;DHT22;6623;52.120;8.660;2023-08-31T08:35:27;24.40;49.10
13115;DHT22;6623;52.120;8.660;2023-08-31T08:37:53;24.40;49.10
13115;DHT22;6623;52.120;8.660;2023-08-31T08:40:19;24.30;49.10
13115;DHT22;6623;52.120;8.660;2023-08-31T08:42:46;24.40;49.80
13115;DHT22;6623;52.120;8.660;2023-08-31T08:45:15;24.30;49.20
13115;DHT22;6623;52.120;8.660;2023-08-31T08:47:43;24.30;49.10
13115;DHT22;6623;52.120;8.660;2023-08-31T08:50:12;24.30;49.20
13115;DHT22;6623;52.120;8.660;2023-08-31T08:52:39;24.30;49.20
13115;DHT22;6623;52.120;8.660;2023-08-31T08:55:06;24.30;49.20
13115;DHT22;6623;52.120;8.660;2023-08-31T08:57:32;24.30;49.20
13115;DHT22;6623;52.120;8.660;2023-08-31T08:59:58;24.30;49.20
13115;DHT22;6623;52.120;8.660;2023-08-31T09:02:23;24.30;49.20
13115;DHT22;6623;52.120;8.660;2023-08-31T09:04:49;24.40;49.30
13115;DHT22;6623;52.120;8.660;2023-08-31T09:07:22;24.40;49.30
13115;DHT22;6623;52.120;8.660;2023-08-31T09:09:50;24.40;49.30
13115;DHT22;6623;52.120;8.660;2023-08-31T09:12:16;24.40;49.30
13115;DHT22;6623;52.120;8.660;2023-08-31T09:14:41;24.40;49.30
13115;DHT22;6623;52.120;8.660;2023-08-31T09:17:07;24.40;49.30
13115;DHT22;6623;52.120;8.660;2023-08-31T09:19:33;24.40;49.30
13115;DHT22;6623;52.120;8.660;2023-08-31T09:21:58;24.40;49.30
13115;DHT22;6623;52.120;8.660;2023-08-31T09:24:24;24.40;49.30
13115;DHT22;6623;52.120;8.660;2023-08-31T09:26:57;24.40;49.30
13115;DHT22;6623;52.120;8.660;2023-08-31T09:29:23;24.40;49.30
13115;DHT22;6623;52.120;8.660;2023-08-31T09:31:48;24.40;49.30
13115;DHT22;6623;52.120;8.660;2023-08-31T09:34:15;24.40;49.40
13115;DHT22;6623;52.120;8.660;2023-08-31T09:36:41;24.40;49.40
13115;DHT22;6623;52.120;8.660;2023-08-31T09:39:08;24.40;49.40
13115;DHT22;6623;52.120;8.660;2023-08-31T09:41:35;24.40;49.40
13115;DHT22;6623;52.120;8.660;2023-08-31T09:44:17;24.30;49.40
13115;DHT22;6623;52.120;8.660;2023-08-31T09:46:44;24.40;49.40
13115;DHT22;6623;52.120;8.660;2023-08-31T09:49:13;24.40;49.50
13115;DHT22;6623;52.120;8.660;2023-08-31T09:51:43;24.40;49.40
13115;DHT22;6623;52.120;8.660;2023-08-31T09:54:09;24.40;49.40
13115;DHT22;6623;52.120;8.660;2023-08-31T09:56:40;24.40;49.40
13115;DHT22;6623;52.120;8.660;2023-08-31T09:59:06;24.40;49.50
13115;DHT22;6623;52.120;8.660;2023-08-31T10:01:32;24.40;49.50
13115;DHT22;6623;52.120;8.660;2023-08-31T10:03:59;24.40;49.50
13115;DHT22;6623;52.120;8.660;2023-08-31T10:06:25;24.30;49.40
13115;DHT22;6623;52.120;8.660;2023-08-31T10:08:51;24.30;49.40
13115;DHT22;6623;52.120;8.660;2023-08-31T10:11:17;24.30;49.40
13115;DHT22;6623;52.120;8.660;2023-08-31T10:13:44;24.40;49.50
13115;DHT22;6623;52.120;8.660;2023-08-31T10:16:11;24.30;49.50
13115;DHT22;6623;52.120;8.660;2023-08-31T10:18:37;24.30;49.50
13115;DHT22;6623;52.120;8.660;2023-08-31T10:21:03;24.30;49.50
13115;DHT22;6623;52.120;8.660;2023-08-31T10:23:29;24.30;49.50
13115;DHT22;6623;52.120;8.660;2023-08-31T10:28:22;24.30;49.50
13115;DHT22;6623;52.120;8.660;2023-08-31T10:31:02;24.30;49.50
13115;DHT22;6623;52.120;8.660;2023-08-31T10:33:41;24.30;49.50
13115;DHT22;6623;52.120;8.660;2023-08-31T10:36:18;24.30;49.50
13115;DHT22;6623;52.120;8.660;2023-08-31T10:39:00;24.30;49.50
13115;DHT22;6623;52.120;8.660;2023-08-31T10:41:34;24.30;49.60
13115;DHT22;6623;52.120;8.660;2023-08-31T10:43:59;24.30;49.50
13115;DHT22;6623;52.120;8.660;2023-08-31T10:46:35;24.30;49.50
13115;DHT22;6623;52.120;8.660;2023-08-31T10:51:42;24.30;49.60
13115;DHT22;6623;52.120;8.660;2023-08-31T10:59:25;24.30;49.60
13115;DHT22;6623;52.120;8.660;2023-08-31T11:02:00;24.30;49.60
13115;DHT22;6623;52.120;8.660;2023-08-31T11:04:29;24.30;49.50
13115;DHT22;6623;52.120;8.660;2023-08-31T11:07:14;24.30;49.60
13115;DHT22;6623;52.120;8.660;2023-08-31T11:09:40;24.30;49.60
13115;DHT22;6623;52.120;8.660;2023-08-31T11:12:06;24.30;49.60
13115;DHT22;6623;52.120;8.660;2023-08-31T11:14:32;24.30;49.60
13115;DHT22;6623;52.120;8.660;2023-08-31T11:16:59;24.30;49.60
13115;DHT22;6623;52.120;8.660;2023-08-31T11:19:26;24.30;50.20
13115;DHT22;6623;52.120;8.660;2023-08-31T11:21:51;24.30;49.50
13115;DHT22;6623;52.120;8.660;2023-08-31T11:24:17;24.30;49.60
13115;DHT22;6623;52.120;8.660;2023-08-31T11:26:43;24.30;49.50
13115;DHT22;6623;52.120;8.660;2023-08-31T11:29:09;24.30;49.60
13115;DHT22;6623;52.120;8.660;2023-08-31T11:31:41;24.30;49.50
13115;DHT22;6623;52.120;8.660;2023-08-31T11:34:08;24.30;49.50
13115;DHT22;6623;52.120;8.660;2023-08-31T11:36:37;24.30;49.50
13115;DHT22;6623;52.120;8.660;2023-08-31T11:39:03;24.30;49.60
13115;DHT22;6623;52.120;8.660;2023-08-31T11:41:36;24.30;49.50
13115;DHT22;6623;52.120;8.660;2023-08-31T11:44:07;24.30;49.50
13115;DHT22;6623;52.120;8.660;2023-08-31T11:46:33;24.30;49.50
13115;DHT22;6623;52.120;8.660;2023-08-31T11:49:02;24.30;49.50
13115;DHT22;6623;52.120;8.660;2023-08-31T11:51:30;24.30;49.40
13115;DHT22;6623;52.120;8.660;2023-08-31T11:53:56;24.30;49.40
13115;DHT22;6623;52.120;8.660;2023-08-31T11:56:23;24.30;49.40
13115;DHT22;6623;52.120;8.660;2023-08-31T11:58:51;24.30;49.40
13115;DHT22;6623;52.120;8.660;2023-08-31T12:01:23;24.30;49.40
13115;DHT22;6623;52.120;8.660;2023-08-31T12:03:49;24.30;49.40
13115;DHT22;6623;52.120;8.660;2023-08-31T12:06:16;24.30;49.40
13115;DHT22;6623;52.120;8.660;2023-08-31T12:08:42;24.30;49.40
13115;DHT22;6623;52.120;8.660;2023-08-31T12:11:08;24.30;49.40
13115;DHT22;6623;52.120;8.660;2023-08-31T12:13:34;24.30;49.40
13115;DHT22;6623;52.120;8.660;2023-08-31T12:15:59;24.30;49.50
13115;DHT22;6623;52.120;8.660;2023-08-31T12:18:29;24.30;49.40
13115;DHT22;6623;52.120;8.660;2023-08-31T12:20:57;24.30;49.40
13115;DHT22;6623;52.120;8.660;2023-08-31T12:23:23;24.30;49.40
13115;DHT22;6623;52.120;8.660;2023-08-31T12:25:49;24.30;49.50
13115;DHT22;6623;52.120;8.660;2023-08-31T12:28:17;24.30;49.50
13115;DHT22;6623;52.120;8.660;2023-08-31T12:30:49;24.30;49.40
13115;DHT22;6623;52.120;8.660;2023-08-31T12:33:16;24.30;49.40
13115;DHT22;6623;52.120;8.660;2023-08-31T12:35:42;24.30;49.40
13115;DHT22;6623;52.120;8.660;2023-08-31T12:38:08;24.30;49.40
13115;DHT22;6623;52.120;8.660;2023-08-31T12:40:34;24.30;49.40
13115;DHT22;6623;52.120;8.660;2023-08-31T12:42:59;24.30;49.40
13115;DHT22;6623;52.120;8.660;2023-08-31T12:45:25;24.30;49.40
13115;DHT22;6623;52.120;8.660;2023-08-31T12:47:50;24.30;49.40
13115;DHT22;6623;52.120;8.660;2023-08-31T12:50:16;24.30;49.40
13115;DHT22;6623;52.120;8.660;2023-08-31T12:52:41;24.30;49.50
13115;DHT22;6623;52.120;8.660;2023-08-31T12:55:12;24.30;49.50
13115;DHT22;6623;52.120;8.660;2023-08-31T12:57:37;24.30;49.40
13115;DHT22;6623;52.120;8.660;2023-08-31T13:00:03;24.30;49.50
13115;DHT22;6623;52.120;8.660;2023-08-31T13:02:30;24.30;49.40
13115;DHT22;6623;52.120;8.660;2023-08-31T13:04:56;24.30;49.40
13115;DHT22;6623;52.120;8.660;2023-08-31T13:07:21;24.30;49.50
13115;DHT22;6623;52.120;8.660;2023-08-31T13:09:47;24.30;49.40
13115;DHT22;6623;52.120;8.660;2023-08-31T13:12:12;24.30;49.50
13115;DHT22;6623;52.120;8.660;2023-08-31T13:14:38;24.30;49.40
13115;DHT22;6623;52.120;8.660;2023-08-31T13:17:04;24.30;49.40
13115;DHT22;6623;52.120;8.660;2023-08-31T13:19:31;24.30;49.40
13115;DHT22;6623;52.120;8.660;2023-08-31T13:21:56;24.30;49.40
13115;DHT22;6623;52.120;8.660;2023-08-31T13:24:22;24.30;49.50
13115;DHT22;6623;52.120;8.660;2023-08-31T13:26:48;24.30;49.40
13115;DHT22;6623;52.120;8.660;2023-08-31T13:29:14;24.30;49.40
13115;DHT22;6623;52.120;8.660;2023-08-31T13:31:40;24.30;49.40
13115;DHT22;6623;52.120;8.660;2023-08-31T13:34:05;24.30;49.40
13115;DHT22;6623;52.120;8.660;2023-08-31T13:36:33;24.30;49.40
13115;DHT22;6623;52.120;8.660;2023-08-31T13:38:59;24.30;49.40
13115;DHT22;6623;52.120;8.660;2023-08-31T13:41:24;24.30;49.50
13115;DHT22;6623;52.120;8.660;2023-08-31T13:43:50;24.30;49.40
13115;DHT22;6623;52.120;8.660;2023-08-31T13:46:17;24.30;49.40
13115;DHT22;6623;52.120;8.660;2023-08-31T13:48:42;24.20;49.40
13115;DHT22;6623;52.120;8.660;2023-08-31T13:51:08;24.30;49.40
13115;DHT22;6623;52.120;8.660;2023-08-31T13:53:33;24.20;49.40
13115;DHT22;6623;52.120;8.660;2023-08-31T13:55:59;24.20;49.40
13115;DHT22;6623;52.120;8.660;2023-08-31T13:58:25;24.30;49.50
13115;DHT22;6623;52.120;8.660;2023-08-31T14:00:51;24.20;49.40
13115;DHT22;6623;52.120;8.660;2023-08-31T14:03:16;24.30;49.50
13115;DHT22;6623;52.120;8.660;2023-08-31T14:05:42;24.20;50.00
13115;DHT22;6623;52.120;8.660;2023-08-31T14:08:08;24.20;49.40
13115;DHT22;6623;52.120;8.660;2023-08-31T14:10:33;24.20;49.40
13115;DHT22;6623;52.120;8.660;2023-08-31T14:12:59;24.20;49.40
13115;DHT22;6623;52.120;8.660;2023-08-31T14:15:25;24.20;49.40
13115;DHT22;6623;52.120;8.660;2023-08-31T14:17:51;24.20;49.40
13115;DHT22;6623;52.120;8.660;2023-08-31T14:20:18;24.20;49.40
13115;DHT22;6623;52.120;8.660;2023-08-31T14:22:44;24.20;49.40
13115;DHT22;6623;52.120;8.660;2023-08-31T14:25:11;24.20;49.40
13115;DHT22;6623;52.120;8.660;2023-08-31T14:27:37;24.20;49.40
13115;DHT22;6623;52.120;8.660;2023-08-31T14:30:04;24.20;49.30
13115;DHT22;6623;52.120;8.660;2023-08-31T14:32:30;24.20;49.20
13115;DHT22;6623;52.120;8.660;2023-08-31T14:34:55;24.10;49.10
13115;DHT22;6623;52.120;8.660;2023-08-31T14:37:21;24.10;49.00
13115;DHT22;6623;52.120;8.660;2023-08-31T14:39:47;24.10;48.90
13115;DHT22;6623;52.120;8.660;2023-08-31T14:42:12;24.10;48.90
13115;DHT22;6623;52.120;8.660;2023-08-31T14:44:38;24.10;48.80
13115;DHT22;6623;52.120;8.660;2023-08-31T14:47:03;24.10;48.70
13115;DHT22;6623;52.120;8.660;2023-08-31T14:49:29;24.10;48.70
13115;DHT22;6623;52.120;8.660;2023-08-31T14:51:54;24.10;48.70
13115;DHT22;6623;52.120;8.660;2023-08-31T14:54:20;24.10;48.60
13115;DHT22;6623;52.120;8.660;2023-08-31T14:56:46;24.10;48.60
13115;DHT22;6623;52.120;8.660;2023-08-31T14:59:11;24.00;48.50
13115;DHT22;6623;52.120;8.660;2023-08-31T15:01:37;24.00;48.50
13115;DHT22;6623;52.120;8.660;2023-08-31T15:04:04;24.00;48.50
13115;DHT22;6623;52.120;8.660;2023-08-31T15:06:30;24.00;48.50
13115;DHT22;6623;52.120;8.660;2023-08-31T15:08:58;24.00;48.50
13115;DHT22;6623;52.120;8.660;2023-08-31T15:11:26;24.00;48.40
13115;DHT22;6623;52.120;8.660;2023-08-31T15:13:52;23.90;48.40
13115;DHT22;6623;52.120;8.660;2023-08-31T15:16:18;24.00;48.50
13115;DHT22;6623;52.120;8.660;2023-08-31T15:18:43;24.00;48.50
13115;DHT22;6623;52.120;8.660;2023-08-31T15:21:10;23.90;48.40
13115;DHT22;6623;52.120;8.660;2023-08-31T15:23:35;23.90;48.50
13115;DHT22;6623;52.120;8.660;2023-08-31T15:26:01;23.90;48.40
13115;DHT22;6623;52.120;8.660;2023-08-31T15:28:28;23.90;48.40
13115;DHT22;6623;52.120;8.660;2023-08-31T15:30:53;23.90;48.50
13115;DHT22;6623;52.120;8.660;2023-08-31T15:33:19;23.90;48.40
13115;DHT22;6623;52.120;8.660;2023-08-31T15:35:44;23.90;48.40
13115;DHT22;6623;52.120;8.660;2023-08-31T15:38:10;23.80;48.40
13115;DHT22;6623;52.120;8.660;2023-08-31T15:40:35;23.90;48.40
13115;DHT22;6623;52.120;8.660;2023-08-31T15:43:01;23.90;48.40
13115;DHT22;6623;52.120;8.660;2023-08-31T15:45:27;23.80;48.40
13115;DHT22;6623;52.120;8.660;2023-08-31T15:47:53;23.80;48.30
13115;DHT22;6623;52.120;8.660;2023-08-31T15:50:18;23.80;48.30
13115;DHT22;6623;52.120;8.660;2023-08-31T15:52:44;23.80;48.30